Time;durP1;ratioP1;P1;durP2;ratioP2;P2;SDS_P1;SDS_P2;PMS_P1;PMS_P2;Temp;Humidity;BMP_temperature;BMP_pressure;BME280_temperature;BME280_humidity;BME280_pressure;Samples;Min_cycle;Max_cycle;Signal;HPM_P1;HPM_P2
2021/10/27 00:01:18;;;;;;;;;12.25;8.50;;;;;;;;5017281;28;45571;-65
2021/10/27 00:03:43;;;;;;;;;11.25;11.00;;;;;;;;5016781;28;46529;-65
2021/10/27 00:06:08;;;;;;;;;11.50;11.50;;;;;;;;5017076;28;45395;-67
2021/10/27 00:08:33;;;;;;;;;13.00;11.75;;;;;;;;5017370;28;45328;-66
2021/10/27 00:10:59;;;;;;;;;9.25;9.25;;;;;;;;5017002;28;45359;-66
2021/10/27 00:13:24;;;;;;;;;7.75;7.75;;;;;;;;5016607;28;46445;-68
2021/10/27 00:15:49;;;;;;;;;13.00;8.00;;;;;;;;5016699;28;45351;-65
2021/10/27 00:18:15;;;;;;;;;13.75;10.50;;;;;;;;5016631;28;45503;-65
2021/10/27 00:20:40;;;;;;;;;21.75;17.75;;;;;;;;5015425;28;45559;-65
2021/10/27 00:23:05;;;;;;;;;15.00;13.25;;;;;;;;5016891;28;46196;-66
2021/10/27 00:25:31;;;;;;;;;12.25;10.75;;;;;;;;5016525;28;45502;-64
2021/10/27 00:27:56;;;;;;;;;19.25;16.75;;;;;;;;5016085;28;45257;-63
2021/10/27 00:30:21;;;;;;;;;17.00;15.75;;;;;;;;5016215;28;45723;-63
2021/10/27 00:32:46;;;;;;;;;12.00;10.50;;;;;;;;5016848;28;45378;-63
2021/10/27 00:35:12;;;;;;;;;13.50;11.25;;;;;;;;5015669;28;45282;-63
2021/10/27 00:37:37;;;;;;;;;13.25;7.75;;;;;;;;5016602;28;45391;-64
2021/10/27 00:40:03;;;;;;;;;13.25;13.00;;;;;;;;5016918;28;45555;-65
2021/10/27 00:42:28;;;;;;;;;12.25;10.00;;;;;;;;5016241;28;46846;-64
2021/10/27 00:44:54;;;;;;;;;11.00;9.50;;;;;;;;5016085;28;45316;-64
2021/10/27 00:47:19;;;;;;;;;14.75;10.75;;;;;;;;5016370;28;45231;-64
2021/10/27 00:49:46;;;;;;;;;12.00;11.00;;;;;;;;5016421;28;45170;-65
2021/10/27 00:52:13;;;;;;;;;11.25;8.50;;;;;;;;5016146;28;45462;-65
2021/10/27 00:54:39;;;;;;;;;15.50;12.50;;;;;;;;5016012;28;45368;-64
2021/10/27 00:57:04;;;;;;;;;13.75;10.75;;;;;;;;5016487;28;45390;-66
2021/10/27 00:59:29;;;;;;;;;11.75;10.50;;;;;;;;5016399;28;45403;-66
2021/10/27 01:01:56;;;;;;;;;10.75;9.75;;;;;;;;5015950;28;45368;-64
2021/10/27 01:04:22;;;;;;;;;14.25;10.50;;;;;;;;5016026;28;45441;-63
2021/10/27 01:06:47;;;;;;;;;18.75;12.50;;;;;;;;5015973;28;45348;-65
2021/10/27 01:09:13;;;;;;;;;13.50;11.50;;;;;;;;5016215;28;45257;-65
2021/10/27 01:11:38;;;;;;;;;10.75;9.00;;;;;;;;5015975;28;46243;-65
2021/10/27 01:14:04;;;;;;;;;12.50;10.75;;;;;;;;5015999;28;45260;-65
2021/10/27 01:16:29;;;;;;;;;15.00;14.00;;;;;;;;5015672;28;45215;-66
2021/10/27 01:18:55;;;;;;;;;11.00;10.75;;;;;;;;5015895;28;45236;-65
2021/10/27 01:21:21;;;;;;;;;10.75;9.50;;;;;;;;5015593;28;47227;-66
2021/10/27 01:23:47;;;;;;;;;13.25;11.75;;;;;;;;5014173;28;45348;-65
2021/10/27 01:26:12;;;;;;;;;14.25;12.00;;;;;;;;5015818;28;45268;-67
2021/10/27 01:28:39;;;;;;;;;13.00;11.00;;;;;;;;5014667;28;45387;-66
2021/10/27 01:31:04;;;;;;;;;14.50;13.00;;;;;;;;5016012;28;45652;-66
2021/10/27 01:33:29;;;;;;;;;15.00;13.50;;;;;;;;5015537;28;45380;-67
2021/10/27 01:35:55;;;;;;;;;14.25;12.75;;;;;;;;5015648;28;45346;-66
2021/10/27 01:38:20;;;;;;;;;11.25;9.50;;;;;;;;5015672;28;45543;-67
2021/10/27 01:40:46;;;;;;;;;11.00;11.00;;;;;;;;5015140;28;47667;-67
2021/10/27 01:43:11;;;;;;;;;16.50;13.50;;;;;;;;5015326;28;45364;-67
2021/10/27 01:45:36;;;;;;;;;20.25;15.25;;;;;;;;5015588;28;45323;-63
2021/10/27 01:48:01;;;;;;;;;24.50;18.75;;;;;;;;5015444;28;45431;-66
2021/10/27 01:50:27;;;;;;;;;18.00;17.75;;;;;;;;5015123;28;45725;-68
2021/10/27 01:52:52;;;;;;;;;16.50;14.50;;;;;;;;5015241;28;45454;-67
2021/10/27 01:55:17;;;;;;;;;18.50;14.25;;;;;;;;5015439;28;45431;-65
2021/10/27 01:57:42;;;;;;;;;18.00;14.75;;;;;;;;5015432;28;45381;-66
2021/10/27 02:00:08;;;;;;;;;14.50;14.50;;;;;;;;5015825;28;46316;-66
2021/10/27 02:02:33;;;;;;;;;14.25;11.50;;;;;;;;5015309;28;45292;-66
2021/10/27 02:04:58;;;;;;;;;21.75;16.75;;;;;;;;5015480;28;45347;-67
2021/10/27 02:07:23;;;;;;;;;19.75;15.25;;;;;;;;5015569;28;45509;-68
2021/10/27 02:09:49;;;;;;;;;18.00;16.50;;;;;;;;5015089;28;46111;-66
2021/10/27 02:12:14;;;;;;;;;17.25;15.00;;;;;;;;5015064;28;45359;-66
2021/10/27 02:14:39;;;;;;;;;18.75;15.00;;;;;;;;5015520;28;45280;-65
2021/10/27 02:17:05;;;;;;;;;14.50;13.75;;;;;;;;5015329;28;45613;-66
2021/10/27 02:19:30;;;;;;;;;15.25;13.75;;;;;;;;5014955;28;46207;-65
2021/10/27 02:21:55;;;;;;;;;18.75;16.00;;;;;;;;5014879;28;45390;-65
2021/10/27 02:24:21;;;;;;;;;14.75;14.00;;;;;;;;5013583;28;45370;-66
2021/10/27 02:26:46;;;;;;;;;18.50;13.00;;;;;;;;5015087;28;45633;-63
2021/10/27 02:29:12;;;;;;;;;14.25;14.25;;;;;;;;5014868;28;46166;-64
2021/10/27 02:31:37;;;;;;;;;16.25;14.50;;;;;;;;5014780;28;45343;-64
2021/10/27 02:34:03;;;;;;;;;18.75;13.75;;;;;;;;5014917;28;45328;-65
2021/10/27 02:36:28;;;;;;;;;19.25;16.50;;;;;;;;5013470;28;45368;-66
2021/10/27 02:38:54;;;;;;;;;23.50;19.25;;;;;;;;5013317;28;45943;-68
2021/10/27 02:41:19;;;;;;;;;20.00;17.00;;;;;;;;5014679;28;45276;-67
2021/10/27 02:43:44;;;;;;;;;14.00;14.00;;;;;;;;5014779;28;45329;-65
2021/10/27 02:46:10;;;;;;;;;13.50;13.00;;;;;;;;5015216;28;45379;-66
2021/10/27 02:48:35;;;;;;;;;16.00;12.50;;;;;;;;5014710;28;45406;-65
2021/10/27 02:51:00;;;;;;;;;21.00;18.25;;;;;;;;5014599;28;45245;-65
2021/10/27 02:53:26;;;;;;;;;24.25;23.00;;;;;;;;5017915;28;45431;-64
2021/10/27 02:55:51;;;;;;;;;21.00;15.25;;;;;;;;5018518;28;45325;-64
2021/10/27 02:58:16;;;;;;;;;14.00;14.00;;;;;;;;5017965;28;45450;-65
2021/10/27 03:00:41;;;;;;;;;13.00;13.00;;;;;;;;5018280;28;45328;-65
2021/10/27 03:03:06;;;;;;;;;17.25;14.75;;;;;;;;5018099;28;45229;-64
2021/10/27 03:05:32;;;;;;;;;19.25;16.75;;;;;;;;5018126;28;45306;-65
2021/10/27 03:07:57;;;;;;;;;17.25;14.50;;;;;;;;5017661;28;45939;-65
2021/10/27 03:10:23;;;;;;;;;17.00;15.00;;;;;;;;5017813;28;45342;-65
2021/10/27 03:12:48;;;;;;;;;19.25;17.50;;;;;;;;5017644;28;45217;-65
2021/10/27 03:15:13;;;;;;;;;16.75;16.00;;;;;;;;5018045;28;45383;-65
2021/10/27 03:17:39;;;;;;;;;16.25;14.75;;;;;;;;5017409;28;46340;-65
2021/10/27 03:20:05;;;;;;;;;16.25;16.00;;;;;;;;5017675;28;45882;-66
2021/10/27 03:22:30;;;;;;;;;17.50;14.50;;;;;;;;5017670;28;45310;-65
2021/10/27 03:24:55;;;;;;;;;19.50;15.00;;;;;;;;5017661;28;45657;-65
2021/10/27 03:27:20;;;;;;;;;17.25;14.00;;;;;;;;5017383;28;45504;-64
2021/10/27 03:29:46;;;;;;;;;15.00;14.75;;;;;;;;5017379;28;45209;-67
2021/10/27 03:32:11;;;;;;;;;16.00;15.00;;;;;;;;5017549;28;45433;-64
2021/10/27 03:34:37;;;;;;;;;21.00;17.75;;;;;;;;5017652;28;45622;-67
2021/10/27 03:37:03;;;;;;;;;19.25;17.75;;;;;;;;5015755;28;46777;-66
2021/10/27 03:39:28;;;;;;;;;18.00;18.00;;;;;;;;5017249;28;45598;-65
2021/10/27 03:41:53;;;;;;;;;16.75;16.75;;;;;;;;5017307;28;45415;-66
2021/10/27 03:44:18;;;;;;;;;22.25;16.00;;;;;;;;5015636;28;45479;-65
2021/10/27 03:46:44;;;;;;;;;19.75;18.50;;;;;;;;5016995;28;45296;-66
2021/10/27 03:49:09;;;;;;;;;18.75;18.25;;;;;;;;5017001;28;45373;-67
2021/10/27 03:51:34;;;;;;;;;20.00;18.25;;;;;;;;5017193;28;45398;-64
2021/10/27 03:54:00;;;;;;;;;22.25;18.25;;;;;;;;5017266;28;45405;-66
2021/10/27 03:56:25;;;;;;;;;19.00;17.25;;;;;;;;5017249;28;45436;-67
2021/10/27 03:58:51;;;;;;;;;22.00;19.75;;;;;;;;5017098;28;45594;-66
2021/10/27 04:01:16;;;;;;;;;20.75;19.00;;;;;;;;5016290;28;45413;-66
2021/10/27 04:03:41;;;;;;;;;25.00;18.75;;;;;;;;5016096;28;45607;-67
2021/10/27 04:06:06;;;;;;;;;18.50;15.75;;;;;;;;5016972;28;45352;-67
2021/10/27 04:08:32;;;;;;;;;25.75;23.00;;;;;;;;5015423;28;45281;-64
2021/10/27 04:10:57;;;;;;;;;20.25;18.25;;;;;;;;5016995;28;45326;-67
2021/10/27 04:13:22;;;;;;;;;16.50;15.75;;;;;;;;5016893;28;45293;-66
2021/10/27 04:15:48;;;;;;;;;23.00;20.25;;;;;;;;5016503;28;45396;-66
2021/10/27 04:18:13;;;;;;;;;20.25;15.50;;;;;;;;5016742;28;45318;-67
2021/10/27 04:20:39;;;;;;;;;20.50;17.00;;;;;;;;5016752;28;45654;-65
2021/10/27 04:23:05;;;;;;;;;15.00;15.00;;;;;;;;5016828;28;45226;-67
2021/10/27 04:25:30;;;;;;;;;19.75;18.25;;;;;;;;5016284;28;45654;-65
2021/10/27 04:27:55;;;;;;;;;22.25;20.00;;;;;;;;5016343;28;45317;-65
2021/10/27 04:30:20;;;;;;;;;18.75;16.75;;;;;;;;5016367;28;45271;-67
2021/10/27 04:32:46;;;;;;;;;19.75;16.50;;;;;;;;5015433;28;45241;-67
2021/10/27 04:35:11;;;;;;;;;19.25;18.25;;;;;;;;5016342;28;46427;-65
2021/10/27 04:37:41;;;;;;;;;20.75;18.00;;;;;;;;5016234;28;45318;-68
2021/10/27 04:40:07;;;;;;;;;18.75;17.00;;;;;;;;5016271;28;45404;-67
2021/10/27 04:42:33;;;;;;;;;21.00;16.50;;;;;;;;5016178;28;45446;-66
2021/10/27 04:44:58;;;;;;;;;24.25;17.75;;;;;;;;5014308;28;46605;-68
2021/10/27 04:47:23;;;;;;;;;18.50;15.75;;;;;;;;5016132;28;45280;-67
2021/10/27 04:49:48;;;;;;;;;22.50;18.50;;;;;;;;5016487;28;45321;-67
2021/10/27 04:52:14;;;;;;;;;19.25;18.75;;;;;;;;5016556;28;45208;-66
2021/10/27 04:54:40;;;;;;;;;26.25;19.50;;;;;;;;5016032;28;46387;-66
2021/10/27 04:57:06;;;;;;;;;20.25;17.25;;;;;;;;5015831;28;45305;-64
2021/10/27 04:59:41;;;;;;;;;21.00;17.25;;;;;;;;5015915;28;45335;-67
2021/10/27 05:02:07;;;;;;;;;20.75;17.25;;;;;;;;5016492;28;45232;-65
2021/10/27 05:04:32;;;;;;;;;20.00;17.00;;;;;;;;5014654;28;48206;-65
2021/10/27 05:06:57;;;;;;;;;19.75;18.25;;;;;;;;5016329;28;45232;-66
2021/10/27 05:09:23;;;;;;;;;16.25;16.00;;;;;;;;5015865;28;45324;-66
2021/10/27 05:11:48;;;;;;;;;21.25;21.00;;;;;;;;5016508;28;45358;-66
2021/10/27 05:14:14;;;;;;;;;20.25;17.75;;;;;;;;5014937;28;46140;-65
2021/10/27 05:16:39;;;;;;;;;22.50;19.25;;;;;;;;5015481;28;45340;-66
2021/10/27 05:19:04;;;;;;;;;21.50;20.50;;;;;;;;5015963;28;45370;-66
2021/10/27 05:21:29;;;;;;;;;25.50;20.25;;;;;;;;5014632;28;45337;-67
2021/10/27 05:23:55;;;;;;;;;24.75;18.50;;;;;;;;5015467;28;46275;-68
2021/10/27 05:26:20;;;;;;;;;22.75;18.00;;;;;;;;5015947;28;45379;-67
2021/10/27 05:28:45;;;;;;;;;21.00;20.00;;;;;;;;5015639;28;45406;-68
2021/10/27 05:31:11;;;;;;;;;19.25;18.00;;;;;;;;5015826;28;45302;-70
2021/10/27 05:33:36;;;;;;;;;27.75;22.50;;;;;;;;5015666;28;46433;-71
2021/10/27 05:36:01;;;;;;;;;22.50;19.50;;;;;;;;5015316;28;45268;-68
2021/10/27 05:38:26;;;;;;;;;22.25;21.50;;;;;;;;5015480;28;45473;-67
2021/10/27 05:40:51;;;;;;;;;22.50;22.00;;;;;;;;5015556;28;45425;-67
2021/10/27 05:43:17;;;;;;;;;21.25;20.50;;;;;;;;5015176;28;45462;-67
2021/10/27 05:45:42;;;;;;;;;28.75;19.75;;;;;;;;5015158;28;45412;-66
2021/10/27 05:48:09;;;;;;;;;25.25;20.00;;;;;;;;5015425;28;45418;-69
2021/10/27 05:50:39;;;;;;;;;26.75;23.00;;;;;;;;5015553;28;45275;-67
2021/10/27 05:55:48;;;;;;;;;30.25;25.00;;;;;;;;5014634;28;45375;-66
2021/10/27 05:58:14;;;;;;;;;28.00;23.50;;;;;;;;5015107;28;45523;-65
2021/10/27 06:00:40;;;;;;;;;26.00;19.75;;;;;;;;5015284;28;45580;-66
2021/10/27 06:03:05;;;;;;;;;25.50;22.50;;;;;;;;5015253;28;46197;-66
2021/10/27 06:05:31;;;;;;;;;26.50;23.00;;;;;;;;5014678;28;45292;-68
2021/10/27 06:07:56;;;;;;;;;24.50;22.75;;;;;;;;5015135;28;45257;-66
2021/10/27 06:10:22;;;;;;;;;28.50;24.25;;;;;;;;5015592;28;45900;-68
2021/10/27 06:12:49;;;;;;;;;26.25;23.00;;;;;;;;5013679;28;46830;-68
2021/10/27 06:15:16;;;;;;;;;32.75;25.50;;;;;;;;5014931;28;45409;-69
2021/10/27 06:17:41;;;;;;;;;29.00;24.25;;;;;;;;5013408;28;45333;-69
2021/10/27 06:20:07;;;;;;;;;26.50;23.00;;;;;;;;5014586;28;45555;-68
2021/10/27 06:22:32;;;;;;;;;30.50;25.75;;;;;;;;5014720;28;45333;-66
2021/10/27 06:24:59;;;;;;;;;30.75;25.50;;;;;;;;5014964;28;45285;-66
2021/10/27 06:27:25;;;;;;;;;25.75;24.00;;;;;;;;5016173;28;45336;-66
2021/10/27 06:29:57;;;;;;;;;30.75;26.00;;;;;;;;5016810;28;45511;-67
2021/10/27 06:32:38;;;;;;;;;32.25;29.50;;;;;;;;5018435;28;45518;-71
2021/10/27 06:35:27;;;;;;;;;25.75;23.75;;;;;;;;5017046;28;45602;-70
2021/10/27 06:38:08;;;;;;;;;24.50;24.50;;;;;;;;5018020;28;45242;-66
2021/10/27 06:48:44;;;;;;;;;28.75;27.25;;;;;;;;5017819;28;45433;-68
2021/10/27 06:51:10;;;;;;;;;28.50;25.00;;;;;;;;5017903;28;45515;-64
2021/10/27 06:53:35;;;;;;;;;28.50;26.75;;;;;;;;5016265;28;46587;-67
2021/10/27 06:56:00;;;;;;;;;37.00;31.75;;;;;;;;5017983;28;45417;-66
2021/10/27 06:58:26;;;;;;;;;38.50;30.50;;;;;;;;5017794;28;45329;-67
2021/10/27 07:00:56;;;;;;;;;31.50;27.00;;;;;;;;5018060;28;45617;-72
2021/10/27 07:16:36;;;;;;;;;31.75;25.25;;;;;;;;5018387;28;45312;-67
2021/10/27 07:19:01;;;;;;;;;37.25;32.50;;;;;;;;5018356;28;45422;-67
2021/10/27 07:21:26;;;;;;;;;35.25;31.00;;;;;;;;5017840;28;45299;-65
2021/10/27 07:23:52;;;;;;;;;34.75;31.00;;;;;;;;5016138;28;47072;-68
2021/10/27 07:26:18;;;;;;;;;32.00;30.00;;;;;;;;5019218;28;45264;-72
2021/10/27 07:28:47;;;;;;;;;35.00;32.50;;;;;;;;5018695;28;45326;-66
2021/10/27 07:31:15;;;;;;;;;42.50;33.50;;;;;;;;5016996;28;45579;-69
2021/10/27 07:33:40;;;;;;;;;40.00;30.75;;;;;;;;5017263;28;45551;-66
2021/10/27 07:36:22;;;;;;;;;37.00;30.50;;;;;;;;5021244;28;45479;-66
2021/10/27 07:41:31;;;;;;;;;48.50;38.50;;;;;;;;5018700;28;45754;-69
2021/10/27 07:43:58;;;;;;;;;34.50;31.50;;;;;;;;5034587;28;45450;-67
2021/10/27 07:46:23;;;;;;;;;39.50;30.00;;;;;;;;5034631;28;45512;-68
2021/10/27 07:48:49;;;;;;;;;39.25;33.00;;;;;;;;5035751;28;45267;-69
2021/10/27 07:51:14;;;;;;;;;37.25;31.75;;;;;;;;5036586;28;45296;-67
2021/10/27 07:53:39;;;;;;;;;32.50;30.00;;;;;;;;5017202;28;47574;-71
2021/10/27 07:56:05;;;;;;;;;38.50;30.75;;;;;;;;5029453;28;45282;-67
2021/10/27 07:58:30;;;;;;;;;39.50;32.50;;;;;;;;5024517;28;45406;-72
2021/10/27 08:00:59;;;;;;;;;37.50;31.25;;;;;;;;5036676;28;45513;-70
2021/10/27 08:03:28;;;;;;;;;39.00;32.25;;;;;;;;5031213;28;45480;-71
2021/10/27 08:05:56;;;;;;;;;39.00;31.00;;;;;;;;5036509;28;45278;-74
2021/10/27 08:08:22;;;;;;;;;39.25;32.75;;;;;;;;5028020;28;45875;-73
2021/10/27 08:10:48;;;;;;;;;39.50;32.75;;;;;;;;5027177;28;45411;-69
2021/10/27 08:13:13;;;;;;;;;37.00;31.00;;;;;;;;5033205;28;45685;-66
2021/10/27 08:15:38;;;;;;;;;39.25;32.00;;;;;;;;5033447;28;45412;-69
2021/10/27 08:18:08;;;;;;;;;37.50;32.50;;;;;;;;5035835;28;45445;-68
2021/10/27 08:20:34;;;;;;;;;33.25;31.25;;;;;;;;5035731;28;45459;-68
2021/10/27 08:23:01;;;;;;;;;33.50;29.00;;;;;;;;5035762;28;45294;-68
2021/10/27 08:25:49;;;;;;;;;46.50;35.75;;;;;;;;5035477;28;45329;-66
2021/10/27 08:28:16;;;;;;;;;41.50;32.00;;;;;;;;5021795;28;45573;-67
2021/10/27 08:33:18;;;;;;;;;45.00;35.00;;;;;;;;5035851;28;45868;-72
2021/10/27 08:35:43;;;;;;;;;46.50;37.25;;;;;;;;5035212;28;45503;-73
2021/10/27 08:38:08;;;;;;;;;34.50;32.00;;;;;;;;5035571;28;45309;-75
2021/10/27 08:40:33;;;;;;;;;47.75;37.75;;;;;;;;5025242;28;45663;-76
2021/10/27 08:42:59;;;;;;;;;39.25;34.75;;;;;;;;5015391;28;46601;-72
2021/10/27 08:45:24;;;;;;;;;43.00;35.00;;;;;;;;5031624;28;45350;-71
2021/10/27 08:47:51;;;;;;;;;46.00;35.50;;;;;;;;4999343;28;45497;-73
2021/10/27 08:50:17;;;;;;;;;49.75;38.00;;;;;;;;5028920;28;45433;-73
2021/10/27 08:52:43;;;;;;;;;47.50;37.00;;;;;;;;5035121;28;46175;-71
2021/10/27 08:55:14;;;;;;;;;45.25;36.75;;;;;;;;5029747;28;45708;-72
2021/10/27 08:57:40;;;;;;;;;46.00;37.50;;;;;;;;5025101;28;45394;-72
2021/10/27 09:00:14;;;;;;;;;40.00;35.50;;;;;;;;5036237;28;45618;-74
2021/10/27 09:02:51;;;;;;;;;47.50;35.00;;;;;;;;5035436;28;46613;-73
2021/10/27 10:05:09;;;;;;;;;47.50;37.25;;;;;;;;5019470;28;45427;-70
2021/10/27 10:07:35;;;;;;;;;47.75;39.25;;;;;;;;5034246;28;46137;-73
2021/10/27 10:10:04;;;;;;;;;44.50;37.00;;;;;;;;5033658;28;45371;-72
2021/10/27 10:12:37;;;;;;;;;49.25;37.25;;;;;;;;5034110;28;45367;-72
2021/10/27 10:15:03;;;;;;;;;49.25;36.25;;;;;;;;5018318;28;45575;-71
2021/10/27 10:17:29;;;;;;;;;43.75;37.00;;;;;;;;5033959;28;45394;-73
2021/10/27 10:19:55;;;;;;;;;48.00;37.75;;;;;;;;5034106;28;45327;-71
2021/10/27 10:22:28;;;;;;;;;53.00;41.50;;;;;;;;5033786;28;45339;-71
2021/10/27 10:24:53;;;;;;;;;47.50;34.50;;;;;;;;5034545;28;45653;-71
2021/10/27 10:27:35;;;;;;;;;45.25;37.00;;;;;;;;5033786;28;46109;-74
2021/10/27 10:30:03;;;;;;;;;36.25;32.75;;;;;;;;5020567;28;45357;-73
2021/10/27 10:32:30;;;;;;;;;50.50;35.75;;;;;;;;5029914;28;45401;-75
2021/10/27 10:34:59;;;;;;;;;49.75;37.75;;;;;;;;5034139;28;45669;-73
2021/10/27 10:37:29;;;;;;;;;54.25;42.25;;;;;;;;5025176;28;46264;-75
2021/10/27 10:39:56;;;;;;;;;49.25;40.00;;;;;;;;5033478;28;45434;-72
2021/10/27 10:42:48;;;;;;;;;51.50;40.50;;;;;;;;5033663;28;45370;-73
2021/10/27 10:45:38;;;;;;;;;43.50;38.00;;;;;;;;5034375;28;45400;-75
2021/10/27 10:55:52;;;;;;;;;47.75;38.75;;;;;;;;5034012;28;45338;-76
2021/10/27 11:02:51;;;;;;;;;49.50;37.75;;;;;;;;5033510;28;45624;-70
2021/10/27 11:38:16;;;;;;;;;40.00;32.50;;;;;;;;5036703;28;45279;-71
2021/10/27 11:40:46;;;;;;;;;45.25;36.75;;;;;;;;5035672;28;45501;-75
2021/10/27 11:45:52;;;;;;;;;42.25;33.50;;;;;;;;5037015;28;45327;-70
2021/10/27 11:48:43;;;;;;;;;40.00;33.25;;;;;;;;5036621;28;45364;-73
2021/10/27 11:51:12;;;;;;;;;37.75;32.75;;;;;;;;5036657;28;45182;-69
2021/10/27 11:53:38;;;;;;;;;32.25;30.75;;;;;;;;5034700;28;46278;-71
2021/10/27 11:56:13;;;;;;;;;43.75;32.00;;;;;;;;5036330;28;45515;-71
2021/10/27 11:58:41;;;;;;;;;37.75;31.75;;;;;;;;5034915;28;45375;-72
2021/10/27 12:01:07;;;;;;;;;39.75;33.00;;;;;;;;5036726;28;45197;-72
2021/10/27 12:03:37;;;;;;;;;29.25;27.25;;;;;;;;5034573;28;47037;-69
2021/10/27 12:14:16;;;;;;;;;32.50;28.50;;;;;;;;5036184;28;46234;-75
2021/10/27 12:19:13;;;;;;;;;29.75;22.50;;;;;;;;5036036;28;45258;-69
2021/10/27 12:21:45;;;;;;;;;28.25;23.25;;;;;;;;5035332;28;45545;-72
2021/10/27 12:24:14;;;;;;;;;26.75;22.75;;;;;;;;5016982;28;48134;-73
2021/10/27 12:26:42;;;;;;;;;26.25;25.00;;;;;;;;5034837;28;45440;-72
2021/10/27 12:29:22;;;;;;;;;21.25;19.75;;;;;;;;5036653;28;45337;-72
2021/10/27 12:32:01;;;;;;;;;29.25;25.75;;;;;;;;5036590;28;45460;-73
2021/10/27 12:34:26;;;;;;;;;23.00;22.00;;;;;;;;5034385;28;47466;-74
2021/10/27 12:36:53;;;;;;;;;22.00;19.25;;;;;;;;5035971;28;45407;-77
2021/10/27 12:39:31;;;;;;;;;22.25;20.75;;;;;;;;5034799;28;45398;-70
2021/10/27 12:42:03;;;;;;;;;15.50;15.50;;;;;;;;5036743;28;45362;-75
2021/10/27 12:44:28;;;;;;;;;21.50;17.00;;;;;;;;5036022;28;46209;-74
2021/10/27 12:47:11;;;;;;;;;18.25;16.75;;;;;;;;5036360;28;45319;-69
2021/10/27 12:49:37;;;;;;;;;21.50;18.50;;;;;;;;5036321;28;45406;-70
2021/10/27 12:52:24;;;;;;;;;18.00;17.00;;;;;;;;5036800;28;45393;-70
2021/10/27 12:55:05;;;;;;;;;15.50;12.25;;;;;;;;5036467;28;45656;-68
2021/10/27 12:57:40;;;;;;;;;16.00;14.25;;;;;;;;5036926;28;45307;-70
2021/10/27 13:00:13;;;;;;;;;18.50;13.25;;;;;;;;5037030;28;45272;-71
2021/10/27 13:02:42;;;;;;;;;15.25;14.75;;;;;;;;5037674;28;45375;-70
2021/10/27 13:05:27;;;;;;;;;19.25;18.25;;;;;;;;5036553;28;45398;-72
2021/10/27 13:07:59;;;;;;;;;17.75;13.75;;;;;;;;5035077;28;45276;-71
2021/10/27 13:10:40;;;;;;;;;15.25;13.00;;;;;;;;5035849;28;45438;-71
2021/10/27 13:13:59;;;;;;;;;15.75;12.00;;;;;;;;5036080;28;45140;-73
2021/10/27 13:31:51;;;;;;;;;19.75;17.50;;;;;;;;5035418;28;45298;-71
2021/10/27 13:34:17;;;;;;;;;16.75;13.25;;;;;;;;5035544;28;45233;-74
2021/10/27 13:36:42;;;;;;;;;18.50;15.50;;;;;;;;5034695;28;45356;-73
2021/10/27 13:39:08;;;;;;;;;13.25;12.00;;;;;;;;5033834;28;45993;-71
2021/10/27 13:41:34;;;;;;;;;9.25;9.25;;;;;;;;5035548;28;45497;-70
2021/10/27 13:44:09;;;;;;;;;17.25;12.75;;;;;;;;5035376;28;45553;-73
2021/10/27 14:07:59;;;;;;;;;17.75;16.50;;;;;;;;5034351;28;45294;-72
2021/10/27 14:13:21;;;;;;;;;20.25;16.25;;;;;;;;5034831;28;45316;-69
2021/10/27 14:16:03;;;;;;;;;20.00;14.75;;;;;;;;5033235;28;45400;-70
2021/10/27 14:18:45;;;;;;;;;16.00;13.75;;;;;;;;5034091;28;46252;-71
2021/10/27 14:40:28;;;;;;;;;7.00;6.00;;;;;;;;5034765;28;45880;-72
2021/10/27 14:51:17;;;;;;;;;9.50;8.75;;;;;;;;5037828;28;46001;-69
2021/10/27 15:21:11;;;;;;;;;8.00;7.00;;;;;;;;5037750;28;45398;-69
2021/10/27 15:44:28;;;;;;;;;10.75;9.25;;;;;;;;5036633;28;46005;-71
2021/10/27 15:52:23;;;;;;;;;9.75;8.25;;;;;;;;5036974;28;45335;-71
2021/10/27 15:54:49;;;;;;;;;7.25;7.25;;;;;;;;5037042;28;47228;-74
2021/10/27 15:57:14;;;;;;;;;16.25;11.00;;;;;;;;5035610;28;45290;-73
2021/10/27 15:59:41;;;;;;;;;9.00;7.00;;;;;;;;5036880;28;45387;-74
2021/10/27 16:02:06;;;;;;;;;9.00;7.00;;;;;;;;5037312;28;45334;-73
2021/10/27 16:04:32;;;;;;;;;9.00;8.00;;;;;;;;5036586;28;45500;-71
2021/10/27 16:06:58;;;;;;;;;10.25;7.50;;;;;;;;5036551;28;45418;-70
2021/10/27 16:09:36;;;;;;;;;9.00;8.00;;;;;;;;5036016;28;45216;-71
2021/10/27 16:12:01;;;;;;;;;14.25;10.50;;;;;;;;5036661;28;45329;-72
2021/10/27 16:14:28;;;;;;;;;12.25;11.50;;;;;;;;5035928;28;46127;-71
2021/10/27 16:16:53;;;;;;;;;9.50;9.25;;;;;;;;5036643;28;45947;-73
2021/10/27 16:19:18;;;;;;;;;22.00;19.50;;;;;;;;5036175;28;45355;-71
2021/10/27 16:21:44;;;;;;;;;15.00;13.00;;;;;;;;5037062;28;45554;-72
2021/10/27 16:24:09;;;;;;;;;11.75;8.25;;;;;;;;5035237;28;46981;-74
2021/10/27 16:26:35;;;;;;;;;10.75;9.50;;;;;;;;5036539;28;45236;-71
2021/10/27 16:29:01;;;;;;;;;12.75;9.25;;;;;;;;5036454;28;45393;-70
2021/10/27 16:31:57;;;;;;;;;10.00;9.25;;;;;;;;5035261;28;45662;-70
2021/10/27 16:34:22;;;;;;;;;13.00;11.00;;;;;;;;5036137;28;45984;-71
2021/10/27 16:36:48;;;;;;;;;13.75;12.75;;;;;;;;5036088;28;45292;-72
2021/10/27 16:39:15;;;;;;;;;8.50;7.50;;;;;;;;5036523;28;45388;-72
2021/10/27 16:41:41;;;;;;;;;13.00;10.00;;;;;;;;5036548;28;45466;-69
2021/10/27 16:44:07;;;;;;;;;9.50;9.50;;;;;;;;5035679;28;46316;-74
2021/10/27 16:46:33;;;;;;;;;11.75;9.50;;;;;;;;5035731;28;45386;-74
2021/10/27 16:48:59;;;;;;;;;10.50;7.50;;;;;;;;5034784;28;45379;-72
2021/10/27 16:51:24;;;;;;;;;13.00;12.00;;;;;;;;5036408;28;45659;-73
2021/10/27 16:53:49;;;;;;;;;12.00;11.00;;;;;;;;5036585;28;46431;-74
2021/10/27 16:56:14;;;;;;;;;12.25;9.50;;;;;;;;5036496;28;45261;-76
2021/10/27 16:58:40;;;;;;;;;11.50;11.00;;;;;;;;5035870;28;45203;-73
2021/10/27 17:01:06;;;;;;;;;18.00;15.50;;;;;;;;5036557;28;45430;-71
2021/10/27 17:03:32;;;;;;;;;10.50;10.50;;;;;;;;5034394;28;46727;-75
2021/10/27 17:05:57;;;;;;;;;14.25;10.50;;;;;;;;5035703;28;45333;-71
2021/10/27 17:08:24;;;;;;;;;15.75;12.75;;;;;;;;5035637;28;45336;-71
2021/10/27 17:10:51;;;;;;;;;23.25;19.25;;;;;;;;5033577;28;45578;-70
2021/10/27 17:13:16;;;;;;;;;34.50;28.00;;;;;;;;5035801;28;47410;-68
2021/10/27 17:15:42;;;;;;;;;28.00;24.50;;;;;;;;5035500;28;45378;-70
2021/10/27 17:18:08;;;;;;;;;25.00;18.00;;;;;;;;5035627;28;45347;-70
2021/10/27 17:20:35;;;;;;;;;18.75;16.50;;;;;;;;5036047;28;45309;-71
2021/10/27 17:23:01;;;;;;;;;20.75;17.50;;;;;;;;5035628;28;45367;-70
2021/10/27 17:25:27;;;;;;;;;19.00;19.00;;;;;;;;5035397;28;45760;-73
2021/10/27 17:27:52;;;;;;;;;19.75;17.75;;;;;;;;5035933;28;45484;-72
2021/10/27 17:30:18;;;;;;;;;40.00;34.75;;;;;;;;5036157;28;45522;-67
2021/10/27 17:32:43;;;;;;;;;41.00;35.00;;;;;;;;5034207;28;46510;-70
2021/10/27 17:35:17;;;;;;;;;42.50;36.50;;;;;;;;5035173;28;45313;-72
2021/10/27 17:37:47;;;;;;;;;35.25;28.50;;;;;;;;5035862;28;45739;-73
2021/10/27 17:40:23;;;;;;;;;29.25;25.75;;;;;;;;5035522;28;45342;-70
2021/10/27 17:42:49;;;;;;;;;16.25;16.25;;;;;;;;5033416;28;47062;-71
2021/10/27 17:45:17;;;;;;;;;15.50;12.00;;;;;;;;5034902;28;45313;-71
2021/10/27 17:47:49;;;;;;;;;20.75;18.00;;;;;;;;5034972;28;45322;-75
2021/10/27 17:52:48;;;;;;;;;24.00;23.25;;;;;;;;5034415;28;45204;-69
2021/10/27 18:00:37;;;;;;;;;52.50;42.50;;;;;;;;5035063;28;45384;-71
2021/10/27 18:03:02;;;;;;;;;26.25;25.25;;;;;;;;5034699;28;45196;-68
2021/10/27 18:05:28;;;;;;;;;23.75;23.75;;;;;;;;5034991;28;45264;-69
2021/10/27 18:07:53;;;;;;;;;23.50;18.25;;;;;;;;5035093;28;45358;-69
2021/10/27 18:10:22;;;;;;;;;18.25;17.50;;;;;;;;5035463;28;45671;-69
2021/10/27 18:12:48;;;;;;;;;21.25;18.50;;;;;;;;5034332;28;47684;-70
2021/10/27 18:15:15;;;;;;;;;24.75;19.75;;;;;;;;5035288;28;45306;-70
2021/10/27 18:17:42;;;;;;;;;20.25;18.75;;;;;;;;5035891;28;45412;-70
2021/10/27 18:20:12;;;;;;;;;22.75;20.00;;;;;;;;5034627;28;45313;-71
2021/10/27 18:25:18;;;;;;;;;25.75;22.25;;;;;;;;5040233;28;45397;-73
2021/10/27 18:28:09;;;;;;;;;33.25;25.50;;;;;;;;5037819;28;45342;-72
2021/10/27 18:41:48;;;;;;;;;33.00;32.50;;;;;;;;4996540;28;45402;-71
2021/10/27 18:44:13;;;;;;;;;37.25;32.50;;;;;;;;5036195;28;46193;-72
2021/10/27 18:46:45;;;;;;;;;36.00;30.25;;;;;;;;5036639;28;45300;-69
2021/10/27 18:49:11;;;;;;;;;21.75;21.00;;;;;;;;5038466;28;45175;-69
2021/10/27 18:51:37;;;;;;;;;24.25;23.25;;;;;;;;5038291;28;45241;-70
2021/10/27 19:12:00;;;;;;;;;31.75;23.25;;;;;;;;5037969;28;45385;-76
2021/10/27 19:17:00;;;;;;;;;32.75;27.25;;;;;;;;5037759;28;45304;-75
2021/10/27 19:19:25;;;;;;;;;23.75;22.00;;;;;;;;5037405;28;45375;-74
2021/10/27 19:21:50;;;;;;;;;26.50;26.00;;;;;;;;5038396;28;45387;-71
2021/10/27 19:24:25;;;;;;;;;26.25;24.75;;;;;;;;5035789;28;46980;-76
2021/10/27 19:26:58;;;;;;;;;24.00;21.25;;;;;;;;5036695;28;45449;-75
2021/10/27 19:29:28;;;;;;;;;29.25;25.25;;;;;;;;5037559;28;45308;-69
2021/10/27 20:04:56;;;;;;;;;28.00;25.50;;;;;;;;5037354;28;45431;-68